createdAt,value
2022-10-01T00:02:08.143Z,3.03
2022-10-01T00:04:37.261Z,3.22
2022-10-01T00:07:09.296Z,3.15
2022-10-01T00:09:37.016Z,3.20
2022-10-01T00:12:04.768Z,3.13
2022-10-01T00:14:32.697Z,3.03
2022-10-01T00:17:01.809Z,2.90
2022-10-01T00:19:29.713Z,3.45
2022-10-01T00:21:57.434Z,3.33
2022-10-01T00:24:25.134Z,3.50
2022-10-01T00:26:53.159Z,3.10
2022-10-01T00:29:20.879Z,4.15
2022-10-01T00:31:49.086Z,3.17
2022-10-01T00:34:18.296Z,3.45
2022-10-01T00:36:46.297Z,2.75
2022-10-01T00:39:14.052Z,2.85
2022-10-01T00:41:42.849Z,3.28
2022-10-01T00:44:30.061Z,4.53
2022-10-01T00:47:01.556Z,9.52
2022-10-01T00:49:33.634Z,5.57
2022-10-01T00:52:07.101Z,3.90
2022-10-01T00:54:40.522Z,7.78
2022-10-01T00:57:08.803Z,3.28
2022-10-01T00:59:38.120Z,5.18
2022-10-01T01:04:34.847Z,2.90
2022-10-01T01:07:04.336Z,3.10
2022-10-01T01:09:35.204Z,2.95
2022-10-01T01:12:11.882Z,2.75
2022-10-01T01:14:46.130Z,3.08
2022-10-01T01:17:19.762Z,2.60
2022-10-01T01:20:08.609Z,3.13
2022-10-01T01:22:41.538Z,3.08
2022-10-01T01:25:17.587Z,3.22
2022-10-01T01:27:52.229Z,2.90
2022-10-01T01:30:21.820Z,2.83
2022-10-01T01:32:53.661Z,2.75
2022-10-01T01:35:26.566Z,3.42
2022-10-01T01:38:01.952Z,3.17
2022-10-01T01:40:32.591Z,2.85
2022-10-01T01:43:05.627Z,3.08
2022-10-01T01:45:38.325Z,4.00
2022-10-01T01:48:09.066Z,3.20
2022-10-01T01:50:46.252Z,3.58
2022-10-01T01:53:15.144Z,3.45
2022-10-01T01:55:45.788Z,2.95
2022-10-01T01:58:13.649Z,2.70
2022-10-01T02:00:42.774Z,2.78
2022-10-01T02:03:11.543Z,2.70
2022-10-01T02:05:44.965Z,2.83
2022-10-01T02:08:23.553Z,2.58
2022-10-01T02:11:11.471Z,2.03
2022-10-01T02:13:48.730Z,2.15
2022-10-01T02:16:25.408Z,2.25
2022-10-01T02:19:01.167Z,2.00
2022-10-01T02:21:33.866Z,1.77
2022-10-01T02:24:08.172Z,1.88
2022-10-01T02:26:38.945Z,2.20
2022-10-01T02:29:09.572Z,2.10
2022-10-01T02:31:39.129Z,1.88
2022-10-01T02:34:12.372Z,1.70
2022-10-01T02:36:42.539Z,1.92
2022-10-01T02:39:11.708Z,1.40
2022-10-01T02:41:39.751Z,1.55
2022-10-01T02:44:10.669Z,1.45
2022-10-01T02:46:46.646Z,1.23
2022-10-01T02:49:15.026Z,1.08
2022-10-01T02:51:49.833Z,1.10
2022-10-01T02:54:23.925Z,1.40
2022-10-01T02:57:05.725Z,1.25
2022-10-01T02:59:33.513Z,1.10
2022-10-01T03:02:03.029Z,1.20
2022-10-01T03:04:30.921Z,0.93
2022-10-01T03:07:03.370Z,0.90
2022-10-01T03:09:31.595Z,0.85
2022-10-01T03:11:59.379Z,0.82
2022-10-01T03:14:27.399Z,0.55
2022-10-01T03:16:55.511Z,0.70
2022-10-01T03:19:24.679Z,0.60
2022-10-01T03:21:52.564Z,0.60
2022-10-01T03:24:20.257Z,0.60
2022-10-01T03:26:47.988Z,0.57
2022-10-01T03:29:15.700Z,0.40
2022-10-01T03:31:43.613Z,0.47
2022-10-01T03:34:13.336Z,0.50
2022-10-01T03:36:42.467Z,0.60
2022-10-01T03:39:10.248Z,0.40
2022-10-01T03:41:38.028Z,0.30
2022-10-01T03:44:06.177Z,0.40
2022-10-01T03:46:33.965Z,0.50
2022-10-01T03:49:01.826Z,0.80
2022-10-01T03:51:29.661Z,0.50
2022-10-01T03:53:59.287Z,0.50
2022-10-01T03:56:27.211Z,0.40
2022-10-01T03:58:55.391Z,0.40
2022-10-01T04:01:23.344Z,0.52
2022-10-01T04:03:51.121Z,0.30
2022-10-01T04:06:19.297Z,0.40
2022-10-01T04:08:47.043Z,0.30
2022-10-01T04:11:16.449Z,0.40
2022-10-01T04:13:44.221Z,0.30
2022-10-01T04:16:12.073Z,0.40
2022-10-01T04:18:39.839Z,0.40
2022-10-01T04:21:07.745Z,0.40
2022-10-01T04:23:35.648Z,0.20
2022-10-01T04:26:04.113Z,0.30
2022-10-01T04:28:33.373Z,0.30
2022-10-01T04:31:25.852Z,0.38
2022-10-01T04:33:54.761Z,0.20
2022-10-01T04:36:23.662Z,0.30
2022-10-01T04:38:54.670Z,0.52
2022-10-01T04:41:25.439Z,0.20
2022-10-01T04:43:54.491Z,0.47
2022-10-01T04:46:22.349Z,0.20
2022-10-01T04:48:50.309Z,0.20
2022-10-01T04:51:18.652Z,0.30
2022-10-01T04:53:46.390Z,0.32
2022-10-01T04:56:14.095Z,0.20
2022-10-01T04:58:41.878Z,0.30
2022-10-01T05:01:11.034Z,0.30
2022-10-01T05:03:38.739Z,0.30
2022-10-01T05:06:08.105Z,0.28
2022-10-01T05:11:04.476Z,0.20
2022-10-01T05:13:32.208Z,0.20
2022-10-01T05:16:01.102Z,0.30
2022-10-01T05:18:30.343Z,0.20
2022-10-01T05:20:58.362Z,0.20
2022-10-01T05:23:26.416Z,0.40
2022-10-01T05:25:54.176Z,0.35
2022-10-01T05:28:22.810Z,0.20
2022-10-01T05:30:50.944Z,0.30
2022-10-01T05:33:18.932Z,0.30
2022-10-01T05:35:47.960Z,0.30
2022-10-01T05:38:15.669Z,0.20
2022-10-01T05:40:46.409Z,0.30
2022-10-01T05:43:14.551Z,0.40
2022-10-01T05:45:42.990Z,0.40
2022-10-01T05:48:10.886Z,0.55
2022-10-01T05:50:42.336Z,0.55
2022-10-01T05:53:13.973Z,0.50
2022-10-01T05:55:41.771Z,0.20
2022-10-01T05:58:11.808Z,0.40
2022-10-01T06:00:41.512Z,0.20
2022-10-01T06:03:09.717Z,0.20
2022-10-01T06:05:38.450Z,0.30
2022-10-01T06:08:07.098Z,0.32
2022-10-01T06:10:36.864Z,0.40
2022-10-01T06:13:05.469Z,0.30
2022-10-01T06:15:37.327Z,0.30
2022-10-01T06:18:05.671Z,0.20
2022-10-01T06:20:33.423Z,0.25
2022-10-01T06:23:01.207Z,0.35
2022-10-01T06:25:30.765Z,0.43
2022-10-01T06:28:00.881Z,0.40
2022-10-01T06:30:29.901Z,0.40
2022-10-01T06:33:02.692Z,0.30
2022-10-01T06:35:30.469Z,0.20
2022-10-01T06:37:58.534Z,0.20
2022-10-01T06:40:26.502Z,0.50
2022-10-01T06:42:56.839Z,0.20
2022-10-01T06:45:26.353Z,0.40
2022-10-01T06:47:58.043Z,0.30
2022-10-01T06:50:25.946Z,0.40
2022-10-01T06:52:54.119Z,0.40
2022-10-01T06:55:24.691Z,0.60
2022-10-01T06:57:55.723Z,0.30
2022-10-01T07:00:24.052Z,0.40
2022-10-01T07:02:54.161Z,0.40
2022-10-01T07:05:22.167Z,0.20
2022-10-01T07:07:50.099Z,0.30
2022-10-01T07:10:20.871Z,0.35
2022-10-01T07:12:49.922Z,0.38
2022-10-01T07:15:20.078Z,0.40
2022-10-01T07:17:49.572Z,0.63
2022-10-01T07:20:19.845Z,0.50
2022-10-01T07:22:48.893Z,0.70
2022-10-01T07:25:16.896Z,0.28
2022-10-01T07:27:44.734Z,0.30
2022-10-01T07:30:12.895Z,0.50
2022-10-01T07:32:40.612Z,0.40
2022-10-01T07:35:09.037Z,0.60
2022-10-01T07:37:38.161Z,0.23
2022-10-01T07:40:07.641Z,0.38
2022-10-01T07:42:35.565Z,0.38
2022-10-01T07:45:06.488Z,0.38
2022-10-01T07:47:34.225Z,0.38
2022-10-01T07:50:01.985Z,0.40
2022-10-01T07:52:29.705Z,0.93
2022-10-01T07:54:58.808Z,0.70
2022-10-01T07:57:26.516Z,0.60
2022-10-01T07:59:56.060Z,0.70
2022-10-01T08:02:24.021Z,0.60
2022-10-01T08:05:09.282Z,0.82
2022-10-01T08:07:36.973Z,1.42
2022-10-01T08:10:06.930Z,1.10
2022-10-01T08:12:34.722Z,0.60
2022-10-01T08:15:03.203Z,0.70
2022-10-01T08:17:31.007Z,0.75
2022-10-01T08:19:58.738Z,0.85
2022-10-01T08:22:26.452Z,2.05
2022-10-01T08:24:54.577Z,0.75
2022-10-01T08:27:24.875Z,0.65
2022-10-01T08:29:52.723Z,2.25
2022-10-01T08:32:20.887Z,0.95
2022-10-01T08:34:53.327Z,0.80
2022-10-01T08:37:28.170Z,0.82
2022-10-01T08:39:56.509Z,1.00
2022-10-01T08:42:41.409Z,0.83
2022-10-01T08:45:15.087Z,1.10
2022-10-01T08:47:49.371Z,0.82
2022-10-01T08:50:29.787Z,0.80
2022-10-01T08:53:01.278Z,1.40
2022-10-01T08:55:36.405Z,0.90
2022-10-01T08:58:07.609Z,1.35
2022-10-01T09:00:39.875Z,1.27
2022-10-01T09:03:11.547Z,1.55
2022-10-01T09:05:48.604Z,1.70
2022-10-01T09:08:24.964Z,1.80
2022-10-01T09:11:01.990Z,1.67
2022-10-01T09:13:57.524Z,1.95
2022-10-01T09:16:29.562Z,2.25
2022-10-01T09:19:08.685Z,3.13
2022-10-01T09:21:48.356Z,2.38
2022-10-01T09:24:17.731Z,1.70
2022-10-01T09:26:49.465Z,1.90
2022-10-01T09:29:24.970Z,2.42
2022-10-01T09:31:54.757Z,2.95
2022-10-01T09:34:29.988Z,2.85
2022-10-01T09:37:05.475Z,2.30
2022-10-01T09:39:39.469Z,2.60
2022-10-01T09:42:07.517Z,2.50
2022-10-01T09:44:37.556Z,2.50
2022-10-01T09:47:17.422Z,3.78
2022-10-01T09:49:46.137Z,2.20
2022-10-01T09:52:18.366Z,2.30
2022-10-01T09:54:50.111Z,1.83
2022-10-01T09:57:25.578Z,2.03
2022-10-01T10:00:04.159Z,2.22
2022-10-01T10:02:35.241Z,2.17
2022-10-01T10:05:04.257Z,2.15
2022-10-01T10:10:11.049Z,2.05
2022-10-01T10:12:38.906Z,2.17
2022-10-01T10:15:11.452Z,2.20
2022-10-01T10:17:44.175Z,2.15
2022-10-01T10:20:22.426Z,2.17
2022-10-01T10:22:50.259Z,2.22
2022-10-01T10:25:23.635Z,1.85
2022-10-01T10:27:55.424Z,1.70
2022-10-01T10:30:26.401Z,2.20
2022-10-01T10:33:03.272Z,2.08
2022-10-01T10:35:31.721Z,2.00
2022-10-01T10:38:00.129Z,2.20
2022-10-01T10:40:33.053Z,1.95
2022-10-01T10:43:01.257Z,2.60
2022-10-01T10:45:35.497Z,2.33
2022-10-01T10:48:06.217Z,2.60
2022-10-01T10:50:38.427Z,1.77
2022-10-01T10:53:22.321Z,1.80
2022-10-01T10:55:58.307Z,2.05
2022-10-01T10:58:28.651Z,2.00
2022-10-01T11:01:01.734Z,1.92
2022-10-01T11:03:30.991Z,1.80
2022-10-01T11:06:04.452Z,2.65
2022-10-01T11:08:33.327Z,1.77
2022-10-01T11:11:10.938Z,2.30
2022-10-01T11:13:51.917Z,2.22
2022-10-01T11:16:46.964Z,1.80
2022-10-01T11:19:34.964Z,2.10
2022-10-01T11:22:19.467Z,1.90
2022-10-01T11:25:02.239Z,2.25
2022-10-01T11:27:39.339Z,2.28
2022-10-01T11:30:11.796Z,1.88
2022-10-01T11:32:46.070Z,2.10
2022-10-01T11:35:34.326Z,2.20
2022-10-01T11:38:18.700Z,1.90
2022-10-01T11:40:50.695Z,1.90
2022-10-01T11:43:24.352Z,2.05
2022-10-01T11:45:56.285Z,2.88
2022-10-01T11:48:29.791Z,1.92
2022-10-01T11:51:03.150Z,1.80
2022-10-01T11:53:35.204Z,2.33
2022-10-01T11:56:25.625Z,5.18
2022-10-01T11:58:57.405Z,2.30
2022-10-01T12:01:39.536Z,2.33
2022-10-01T12:04:22.085Z,1.77
2022-10-01T12:06:55.786Z,2.53
2022-10-01T12:09:29.274Z,2.42
2022-10-01T12:12:01.441Z,2.00
2022-10-01T12:14:34.796Z,1.83
2022-10-01T12:17:13.130Z,1.50
2022-10-01T12:19:46.378Z,2.15
2022-10-01T12:22:24.411Z,1.75
2022-10-01T12:24:53.499Z,2.10
2022-10-01T12:27:39.126Z,2.10
2022-10-01T12:30:11.179Z,2.15
2022-10-01T12:32:50.704Z,2.05
2022-10-01T12:35:35.445Z,2.03
2022-10-01T12:38:16.348Z,2.25
2022-10-01T12:40:47.956Z,1.90
2022-10-01T12:43:40.836Z,2.13
2022-10-01T12:46:21.790Z,1.95
2022-10-01T12:48:57.896Z,1.83
2022-10-01T12:51:40.117Z,1.73
2022-10-01T12:54:22.024Z,1.85
2022-10-01T12:56:57.318Z,2.20
2022-10-01T12:59:41.565Z,1.95
2022-10-01T13:02:31.439Z,1.60
2022-10-01T13:05:19.943Z,2.10
2022-10-01T13:08:11.160Z,1.90
2022-10-01T13:11:03.338Z,1.42
2022-10-01T13:13:33.423Z,1.75
2022-10-01T13:16:09.642Z,2.13
2022-10-01T13:18:51.695Z,2.15
2022-10-01T13:21:26.339Z,1.70
2022-10-01T13:23:59.456Z,1.95
2022-10-01T13:26:33.313Z,1.65
2022-10-01T13:29:16.865Z,1.88
2022-10-01T13:31:56.767Z,1.95
2022-10-01T13:34:39.340Z,1.80
2022-10-01T13:37:16.456Z,2.35
2022-10-01T13:39:46.736Z,1.83
2022-10-01T13:42:21.619Z,2.22
2022-10-01T13:44:57.974Z,2.00
2022-10-01T13:47:26.682Z,2.22
2022-10-01T13:49:58.347Z,2.15
2022-10-01T13:52:26.329Z,2.35
2022-10-01T13:54:57.125Z,1.92
2022-10-01T13:57:35.140Z,1.67
2022-10-01T14:00:20.619Z,1.88
2022-10-01T14:03:01.971Z,1.60
2022-10-01T14:05:35.713Z,2.35
2022-10-01T14:08:15.921Z,1.70
2022-10-01T14:11:07.692Z,1.85
2022-10-01T14:14:00.736Z,2.17
2022-10-01T14:16:29.526Z,1.73
2022-10-01T14:18:57.696Z,2.92
2022-10-01T14:21:36.725Z,2.30
2022-10-01T14:26:48.231Z,2.05
2022-10-01T14:29:27.353Z,2.15
2022-10-01T14:34:39.982Z,1.70
2022-10-01T14:37:12.617Z,1.80
2022-10-01T14:39:42.743Z,1.63
2022-10-01T14:42:17.403Z,1.58
2022-10-01T14:44:46.663Z,1.58
2022-10-01T14:49:43.437Z,1.77
2022-10-01T14:52:20.435Z,1.70
2022-10-01T14:54:51.799Z,1.90
2022-10-01T14:57:28.773Z,1.75
2022-10-01T14:59:58.305Z,2.05
2022-10-01T15:02:27.678Z,1.98
2022-10-01T15:04:57.284Z,1.85
2022-10-01T15:07:26.856Z,2.10
2022-10-01T15:09:55.315Z,2.10
2022-10-01T15:12:24.700Z,1.90
2022-10-01T15:14:55.235Z,2.58
2022-10-01T15:17:25.856Z,1.98
2022-10-01T15:19:58.446Z,1.95
2022-10-01T15:22:31.016Z,1.60
2022-10-01T15:25:01.836Z,1.42
2022-10-01T15:27:31.415Z,1.70
2022-10-01T15:29:59.956Z,1.40
2022-10-01T15:32:29.056Z,1.85
2022-10-01T15:34:59.059Z,1.90
2022-10-01T15:37:31.990Z,1.95
2022-10-01T15:40:01.252Z,2.00
2022-10-01T15:42:32.795Z,2.20
2022-10-01T15:45:23.080Z,1.90
2022-10-01T15:47:52.236Z,1.50
2022-10-01T15:53:03.615Z,1.30
2022-10-01T15:55:35.253Z,1.92
2022-10-01T15:58:15.037Z,1.60
2022-10-01T16:00:53.603Z,1.70
2022-10-01T16:03:25.339Z,1.90
2022-10-01T16:05:55.374Z,1.80
2022-10-01T16:08:26.683Z,1.67
2022-10-01T16:11:17.449Z,1.90
2022-10-01T16:13:48.973Z,1.95
2022-10-01T16:16:25.973Z,1.63
2022-10-01T16:18:57.539Z,1.58
2022-10-01T16:21:25.291Z,1.75
2022-10-01T16:23:54.013Z,1.58
2022-10-01T16:26:34.694Z,2.15
2022-10-01T16:29:07.643Z,1.60
2022-10-01T16:31:37.218Z,1.67
2022-10-01T16:34:11.830Z,2.15
2022-10-01T16:36:40.308Z,2.35
2022-10-01T16:39:08.726Z,2.00
2022-10-01T16:41:38.010Z,1.83
2022-10-01T16:49:03.030Z,2.03
2022-10-01T16:51:31.891Z,1.52
2022-10-01T16:54:01.787Z,2.08
2022-10-01T16:56:29.654Z,2.47
2022-10-01T16:58:57.444Z,2.17
2022-10-01T17:01:27.111Z,2.20
2022-10-01T17:03:54.917Z,2.15
2022-10-01T17:06:22.639Z,1.83
2022-10-01T17:08:50.390Z,2.08
2022-10-01T17:11:18.152Z,1.80
2022-10-01T17:13:45.876Z,1.92
2022-10-01T17:16:13.728Z,2.50
2022-10-01T17:18:43.723Z,5.55
2022-10-01T17:21:11.495Z,9.85
2022-10-01T17:23:39.211Z,2.60
2022-10-01T17:26:07.605Z,4.85
2022-10-01T17:28:35.470Z,2.47
2022-10-01T17:31:07.491Z,3.08
2022-10-01T17:33:35.492Z,2.20
2022-10-01T17:36:07.639Z,2.65
2022-10-01T17:38:35.531Z,2.58
2022-10-01T17:41:04.074Z,3.28
2022-10-01T17:43:31.832Z,3.30
2022-10-01T17:46:01.150Z,2.60
2022-10-01T17:48:30.027Z,2.33
2022-10-01T17:51:07.215Z,2.10
2022-10-01T17:53:41.369Z,3.10
2022-10-01T17:56:13.630Z,1.90
2022-10-01T17:58:44.956Z,2.35
2022-10-01T18:01:16.503Z,2.28
2022-10-01T18:03:44.470Z,2.03
2022-10-01T18:06:15.306Z,2.40
2022-10-01T18:08:58.694Z,3.80
2022-10-01T18:11:28.754Z,2.20
2022-10-01T18:13:56.957Z,2.42
2022-10-01T18:16:25.411Z,2.70
2022-10-01T18:21:46.973Z,2.42
2022-10-01T18:24:15.387Z,4.05
2022-10-01T18:26:43.199Z,2.37
2022-10-01T18:29:12.605Z,2.67
2022-10-01T18:31:44.290Z,3.38
2022-10-01T18:34:18.628Z,2.50
2022-10-01T18:36:55.900Z,3.22
2022-10-01T18:39:32.666Z,2.40
2022-10-01T18:42:00.722Z,2.67
2022-10-01T18:44:28.479Z,2.17
2022-10-01T18:47:08.972Z,1.80
2022-10-01T18:50:12.662Z,2.13
2022-10-01T18:52:51.667Z,2.65
2022-10-01T18:55:40.214Z,2.85
2022-10-01T18:58:21.539Z,3.63
2022-10-01T19:00:58.806Z,2.50
2022-10-01T19:03:44.091Z,4.25
2022-10-01T19:06:44.163Z,6.15
2022-10-01T19:09:30.226Z,2.30
2022-10-01T19:12:08.774Z,2.10
2022-10-01T19:14:55.814Z,3.25
2022-10-01T19:17:43.653Z,2.45
2022-10-01T19:20:21.695Z,2.30
2022-10-01T19:23:04.208Z,2.97
2022-10-01T19:25:37.681Z,2.60
2022-10-01T19:28:18.300Z,2.95
2022-10-01T19:30:57.769Z,2.92
2022-10-01T19:33:25.786Z,2.83
2022-10-01T19:35:57.203Z,2.03
2022-10-01T19:38:29.986Z,2.42
2022-10-01T19:41:03.535Z,2.63
2022-10-01T19:43:38.327Z,3.13
2022-10-01T19:46:12.947Z,2.67
2022-10-01T19:48:47.397Z,2.60
2022-10-01T19:51:17.512Z,3.05
2022-10-01T19:53:48.612Z,2.88
2022-10-01T19:56:23.308Z,2.40
2022-10-01T19:58:51.100Z,2.42
2022-10-01T20:01:22.239Z,2.83
2022-10-01T20:03:57.002Z,4.25
2022-10-01T20:06:31.862Z,2.80
2022-10-01T20:09:02.057Z,2.50
2022-10-01T20:11:36.199Z,9.00
2022-10-01T20:14:37.847Z,2.80
2022-10-01T20:17:15.119Z,8.82
2022-10-01T20:19:47.730Z,4.68
2022-10-01T20:22:23.131Z,5.35
2022-10-01T20:24:58.897Z,3.75
2022-10-01T20:27:39.925Z,6.13
2022-10-01T20:30:09.627Z,2.38
2022-10-01T20:32:48.240Z,2.78
2022-10-01T20:35:26.782Z,5.20
2022-10-01T20:38:00.041Z,3.65
2022-10-01T20:40:32.707Z,3.17
2022-10-01T20:43:07.467Z,2.15
2022-10-01T20:45:36.387Z,2.50
2022-10-01T20:48:11.289Z,2.60
2022-10-01T20:50:43.705Z,2.60
2022-10-01T20:53:18.355Z,3.20
2022-10-01T20:55:51.469Z,3.95
2022-10-01T20:58:24.634Z,2.50
2022-10-01T21:00:59.301Z,3.53
2022-10-01T21:03:31.796Z,3.10
2022-10-01T21:06:06.292Z,3.00
2022-10-01T21:08:47.960Z,6.93
2022-10-01T21:11:22.704Z,3.92
2022-10-01T21:13:59.852Z,5.53
2022-10-01T21:16:58.260Z,2.85
2022-10-01T21:19:49.121Z,3.35
2022-10-01T21:22:30.940Z,3.03
2022-10-01T21:25:12.016Z,2.75
2022-10-01T21:28:05.137Z,3.75
2022-10-01T21:30:43.574Z,7.53
2022-10-01T21:33:26.573Z,4.67
2022-10-01T21:35:59.778Z,2.90
2022-10-01T21:38:32.100Z,5.38
2022-10-01T21:41:26.651Z,3.20
2022-10-01T21:44:11.024Z,4.15
2022-10-01T21:46:49.139Z,5.72
2022-10-01T21:49:24.794Z,2.85
2022-10-01T21:52:04.421Z,3.42
2022-10-01T21:55:00.413Z,3.00
2022-10-01T21:57:43.803Z,19.45
2022-10-01T22:00:19.237Z,4.28
2022-10-01T22:02:59.961Z,3.72
2022-10-01T22:05:37.257Z,3.80
2022-10-01T22:08:16.904Z,3.33
2022-10-01T22:10:47.609Z,3.25
2022-10-01T22:13:19.995Z,2.97
2022-10-01T22:15:51.945Z,3.85
2022-10-01T22:18:28.970Z,4.18
2022-10-01T22:21:00.804Z,3.58
2022-10-01T22:23:30.804Z,3.33
2022-10-01T22:26:02.156Z,4.50
2022-10-01T22:28:37.237Z,3.95
2022-10-01T22:31:07.254Z,2.90
2022-10-01T22:33:42.325Z,3.85
2022-10-01T22:36:15.513Z,3.85
2022-10-01T22:38:46.648Z,3.55
2022-10-01T22:41:21.388Z,2.80
2022-10-01T22:43:49.809Z,3.42
2022-10-01T22:46:38.204Z,4.30
2022-10-01T22:49:22.336Z,3.97
2022-10-01T22:52:03.295Z,2.80
2022-10-01T22:54:40.403Z,3.22
2022-10-01T22:57:19.773Z,3.03
2022-10-01T22:59:58.418Z,3.15
2022-10-01T23:02:32.300Z,8.45
2022-10-01T23:05:11.024Z,5.53
2022-10-01T23:07:51.424Z,2.90
2022-10-01T23:10:25.657Z,4.70
2022-10-01T23:13:03.943Z,3.75
2022-10-01T23:15:38.945Z,3.83
2022-10-01T23:18:15.012Z,4.00
2022-10-01T23:20:54.279Z,3.42
2022-10-01T23:26:11.949Z,3.67
2022-10-01T23:28:51.826Z,3.97
2022-10-01T23:31:27.058Z,3.10
2022-10-01T23:34:14.738Z,4.35
2022-10-01T23:36:49.529Z,3.15
2022-10-01T23:39:40.605Z,4.20
2022-10-01T23:42:20.191Z,3.72
2022-10-01T23:44:53.160Z,5.30
2022-10-01T23:47:26.761Z,3.97
2022-10-01T23:49:56.689Z,4.47
2022-10-01T23:52:32.799Z,3.28
2022-10-01T23:55:19.129Z,4.45
2022-10-01T23:57:49.411Z,3.90
